sensor_id;sensor_type;location;lat;lon;timestamp;P1;durP1;ratioP1;P2;durP2;ratioP2
62475;SDS011;50739;45.670;11.936;2022-08-03T00:02:10;1.48;;;1.38;;
62475;SDS011;50739;45.670;11.936;2022-08-03T00:07:12;2.03;;;1.40;;
62475;SDS011;50739;45.670;11.936;2022-08-03T00:12:16;1.70;;;1.20;;
62475;SDS011;50739;45.670;11.936;2022-08-03T00:17:18;1.90;;;1.43;;
62475;SDS011;50739;45.670;11.936;2022-08-03T00:22:19;1.30;;;1.20;;
62475;SDS011;50739;45.670;11.936;2022-08-03T00:27:23;1.60;;;1.45;;
62475;SDS011;50739;45.670;11.936;2022-08-03T00:32:27;1.50;;;1.33;;
62475;SDS011;50739;45.670;11.936;2022-08-03T00:37:29;4.50;;;1.50;;
62475;SDS011;50739;45.670;11.936;2022-08-03T00:42:32;1.67;;;1.57;;
62475;SDS011;50739;45.670;11.936;2022-08-03T00:47:34;1.42;;;1.33;;
62475;SDS011;50739;45.670;11.936;2022-08-03T00:52:35;1.70;;;1.60;;
62475;SDS011;50739;45.670;11.936;2022-08-03T00:57:39;3.60;;;1.50;;
62475;SDS011;50739;45.670;11.936;2022-08-03T01:02:42;3.03;;;1.38;;
62475;SDS011;50739;45.670;11.936;2022-08-03T01:07:47;2.17;;;1.50;;
62475;SDS011;50739;45.670;11.936;2022-08-03T01:13:02;2.90;;;1.48;;
62475;SDS011;50739;45.670;11.936;2022-08-03T01:18:11;1.50;;;1.40;;
62475;SDS011;50739;45.670;11.936;2022-08-03T01:29:06;1.93;;;1.37;;
62475;SDS011;50739;45.670;11.936;2022-08-03T01:34:21;2.30;;;1.40;;
62475;SDS011;50739;45.670;11.936;2022-08-03T01:39:26;2.00;;;1.60;;
62475;SDS011;50739;45.670;11.936;2022-08-03T01:44:32;2.63;;;1.58;;
62475;SDS011;50739;45.670;11.936;2022-08-03T01:49:39;1.85;;;1.45;;
62475;SDS011;50739;45.670;11.936;2022-08-03T01:54:45;1.93;;;1.40;;
62475;SDS011;50739;45.670;11.936;2022-08-03T01:59:51;2.13;;;1.55;;
62475;SDS011;50739;45.670;11.936;2022-08-03T02:04:57;1.55;;;1.45;;
62475;SDS011;50739;45.670;11.936;2022-08-03T02:10:01;1.50;;;1.40;;
62475;SDS011;50739;45.670;11.936;2022-08-03T02:15:05;1.40;;;1.30;;
62475;SDS011;50739;45.670;11.936;2022-08-03T02:20:10;2.50;;;1.50;;
62475;SDS011;50739;45.670;11.936;2022-08-03T02:25:14;1.73;;;1.50;;
62475;SDS011;50739;45.670;11.936;2022-08-03T02:30:16;1.70;;;1.60;;
62475;SDS011;50739;45.670;11.936;2022-08-03T02:35:21;1.60;;;1.30;;
62475;SDS011;50739;45.670;11.936;2022-08-03T02:40:27;2.35;;;1.70;;
62475;SDS011;50739;45.670;11.936;2022-08-03T02:45:30;2.75;;;1.90;;
62475;SDS011;50739;45.670;11.936;2022-08-03T02:50:37;2.60;;;1.85;;
62475;SDS011;50739;45.670;11.936;2022-08-03T02:55:39;3.10;;;2.08;;
62475;SDS011;50739;45.670;11.936;2022-08-03T03:00:42;3.00;;;1.90;;
62475;SDS011;50739;45.670;11.936;2022-08-03T03:05:46;3.70;;;2.05;;
62475;SDS011;50739;45.670;11.936;2022-08-03T03:10:49;2.03;;;1.83;;
62475;SDS011;50739;45.670;11.936;2022-08-03T03:15:52;3.50;;;2.00;;
62475;SDS011;50739;45.670;11.936;2022-08-03T03:20:58;2.10;;;1.80;;
62475;SDS011;50739;45.670;11.936;2022-08-03T03:26:01;2.37;;;1.83;;
62475;SDS011;50739;45.670;11.936;2022-08-03T03:31:04;2.50;;;2.10;;
62475;SDS011;50739;45.670;11.936;2022-08-03T03:36:08;2.55;;;2.00;;
62475;SDS011;50739;45.670;11.936;2022-08-03T03:41:11;2.72;;;2.30;;
62475;SDS011;50739;45.670;11.936;2022-08-03T03:46:13;2.97;;;2.40;;
62475;SDS011;50739;45.670;11.936;2022-08-03T03:51:16;2.83;;;2.20;;
62475;SDS011;50739;45.670;11.936;2022-08-03T03:56:19;3.95;;;2.80;;
62475;SDS011;50739;45.670;11.936;2022-08-03T04:01:21;3.20;;;2.90;;
62475;SDS011;50739;45.670;11.936;2022-08-03T04:06:24;4.00;;;3.00;;
62475;SDS011;50739;45.670;11.936;2022-08-03T04:11:44;3.40;;;2.85;;
62475;SDS011;50739;45.670;11.936;2022-08-03T04:16:51;4.03;;;2.70;;
62475;SDS011;50739;45.670;11.936;2022-08-03T04:21:59;2.95;;;2.50;;
62475;SDS011;50739;45.670;11.936;2022-08-03T04:27:04;3.17;;;2.13;;
62475;SDS011;50739;45.670;11.936;2022-08-03T04:32:08;3.83;;;2.60;;
62475;SDS011;50739;45.670;11.936;2022-08-03T04:37:13;4.87;;;2.60;;
62475;SDS011;50739;45.670;11.936;2022-08-03T04:42:26;4.95;;;2.30;;
62475;SDS011;50739;45.670;11.936;2022-08-03T04:47:29;3.05;;;2.35;;
62475;SDS011;50739;45.670;11.936;2022-08-03T04:52:34;2.43;;;2.20;;
62475;SDS011;50739;45.670;11.936;2022-08-03T04:57:36;2.63;;;2.17;;
62475;SDS011;50739;45.670;11.936;2022-08-03T05:02:38;3.25;;;2.20;;
62475;SDS011;50739;45.670;11.936;2022-08-03T05:07:42;2.60;;;2.35;;
62475;SDS011;50739;45.670;11.936;2022-08-03T05:12:44;4.90;;;2.28;;
62475;SDS011;50739;45.670;11.936;2022-08-03T05:17:48;4.00;;;2.30;;
62475;SDS011;50739;45.670;11.936;2022-08-03T05:22:51;3.92;;;2.65;;
62475;SDS011;50739;45.670;11.936;2022-08-03T05:27:53;2.90;;;2.60;;
62475;SDS011;50739;45.670;11.936;2022-08-03T05:32:55;2.60;;;2.40;;
62475;SDS011;50739;45.670;11.936;2022-08-03T05:37:58;3.33;;;2.40;;
62475;SDS011;50739;45.670;11.936;2022-08-03T05:43:00;4.03;;;2.30;;
62475;SDS011;50739;45.670;11.936;2022-08-03T05:48:02;2.92;;;2.30;;
62475;SDS011;50739;45.670;11.936;2022-08-03T05:53:06;3.67;;;2.50;;
62475;SDS011;50739;45.670;11.936;2022-08-03T05:58:08;3.20;;;2.60;;
62475;SDS011;50739;45.670;11.936;2022-08-03T06:03:10;3.97;;;2.80;;
62475;SDS011;50739;45.670;11.936;2022-08-03T06:08:14;5.60;;;3.17;;
62475;SDS011;50739;45.670;11.936;2022-08-03T06:13:16;6.65;;;3.10;;
62475;SDS011;50739;45.670;11.936;2022-08-03T06:18:18;3.50;;;2.33;;
62475;SDS011;50739;45.670;11.936;2022-08-03T06:23:21;4.70;;;2.30;;
62475;SDS011;50739;45.670;11.936;2022-08-03T06:28:23;3.30;;;2.60;;
62475;SDS011;50739;45.670;11.936;2022-08-03T06:33:25;4.50;;;2.60;;
62475;SDS011;50739;45.670;11.936;2022-08-03T06:38:29;3.83;;;2.65;;
62475;SDS011;50739;45.670;11.936;2022-08-03T06:43:31;4.27;;;2.10;;
62475;SDS011;50739;45.670;11.936;2022-08-03T06:48:36;3.08;;;1.75;;
62475;SDS011;50739;45.670;11.936;2022-08-03T06:53:39;2.17;;;1.52;;
62475;SDS011;50739;45.670;11.936;2022-08-03T06:58:41;2.33;;;1.60;;
62475;SDS011;50739;45.670;11.936;2022-08-03T07:03:43;4.70;;;1.60;;
62475;SDS011;50739;45.670;11.936;2022-08-03T07:08:46;2.07;;;1.60;;
62475;SDS011;50739;45.670;11.936;2022-08-03T07:13:48;2.90;;;1.80;;
62475;SDS011;50739;45.670;11.936;2022-08-03T07:18:50;3.37;;;1.80;;
62475;SDS011;50739;45.670;11.936;2022-08-03T07:23:53;3.20;;;1.80;;
62475;SDS011;50739;45.670;11.936;2022-08-03T07:28:55;1.60;;;1.50;;
62475;SDS011;50739;45.670;11.936;2022-08-03T07:33:57;1.90;;;1.40;;
62475;SDS011;50739;45.670;11.936;2022-08-03T07:39:00;2.40;;;1.35;;
62475;SDS011;50739;45.670;11.936;2022-08-03T07:44:02;1.60;;;1.50;;
62475;SDS011;50739;45.670;11.936;2022-08-03T07:49:04;1.80;;;1.70;;
62475;SDS011;50739;45.670;11.936;2022-08-03T07:54:07;3.78;;;1.60;;
62475;SDS011;50739;45.670;11.936;2022-08-03T07:59:10;2.63;;;1.60;;
62475;SDS011;50739;45.670;11.936;2022-08-03T08:04:12;1.60;;;1.50;;
62475;SDS011;50739;45.670;11.936;2022-08-03T08:09:16;1.90;;;1.80;;
62475;SDS011;50739;45.670;11.936;2022-08-03T08:14:18;3.67;;;2.17;;
62475;SDS011;50739;45.670;11.936;2022-08-03T08:19:19;3.13;;;1.63;;
62475;SDS011;50739;45.670;11.936;2022-08-03T08:24:23;3.07;;;1.80;;
62475;SDS011;50739;45.670;11.936;2022-08-03T08:29:25;2.97;;;1.65;;
62475;SDS011;50739;45.670;11.936;2022-08-03T08:34:27;1.90;;;1.80;;
62475;SDS011;50739;45.670;11.936;2022-08-03T08:39:31;3.40;;;1.95;;
62475;SDS011;50739;45.670;11.936;2022-08-03T08:44:33;2.10;;;1.88;;
62475;SDS011;50739;45.670;11.936;2022-08-03T08:49:35;2.40;;;1.77;;
62475;SDS011;50739;45.670;11.936;2022-08-03T08:54:42;4.30;;;1.90;;
62475;SDS011;50739;45.670;11.936;2022-08-03T08:59:45;2.17;;;1.70;;
62475;SDS011;50739;45.670;11.936;2022-08-03T09:04:47;2.57;;;1.70;;
62475;SDS011;50739;45.670;11.936;2022-08-03T09:09:51;2.90;;;1.73;;
62475;SDS011;50739;45.670;11.936;2022-08-03T09:14:53;2.70;;;1.90;;
62475;SDS011;50739;45.670;11.936;2022-08-03T09:20:03;1.80;;;1.63;;
62475;SDS011;50739;45.670;11.936;2022-08-03T09:25:09;1.92;;;1.70;;
62475;SDS011;50739;45.670;11.936;2022-08-03T09:30:12;1.90;;;1.70;;
62475;SDS011;50739;45.670;11.936;2022-08-03T09:35:15;2.15;;;1.80;;
62475;SDS011;50739;45.670;11.936;2022-08-03T09:40:32;2.43;;;1.97;;
62475;SDS011;50739;45.670;11.936;2022-08-03T09:45:36;2.40;;;1.93;;
62475;SDS011;50739;45.670;11.936;2022-08-03T09:50:46;1.83;;;1.65;;
62475;SDS011;50739;45.670;11.936;2022-08-03T09:55:51;3.63;;;1.90;;
62475;SDS011;50739;45.670;11.936;2022-08-03T10:00:56;3.50;;;1.85;;
62475;SDS011;50739;45.670;11.936;2022-08-03T10:05:59;2.65;;;1.73;;
62475;SDS011;50739;45.670;11.936;2022-08-03T10:11:29;2.10;;;1.90;;
62475;SDS011;50739;45.670;11.936;2022-08-03T10:16:32;2.50;;;1.70;;
62475;SDS011;50739;45.670;11.936;2022-08-03T10:21:36;2.72;;;1.85;;
62475;SDS011;50739;45.670;11.936;2022-08-03T10:26:40;3.57;;;1.80;;
62475;SDS011;50739;45.670;11.936;2022-08-03T10:31:45;2.57;;;1.73;;
62475;SDS011;50739;45.670;11.936;2022-08-03T10:36:48;2.20;;;1.80;;
62475;SDS011;50739;45.670;11.936;2022-08-03T10:41:55;2.42;;;1.80;;
62475;SDS011;50739;45.670;11.936;2022-08-03T10:46:58;2.80;;;1.90;;
62475;SDS011;50739;45.670;11.936;2022-08-03T10:52:01;3.38;;;1.80;;
62475;SDS011;50739;45.670;11.936;2022-08-03T10:57:06;2.05;;;1.70;;
62475;SDS011;50739;45.670;11.936;2022-08-03T11:02:21;2.00;;;1.90;;
62475;SDS011;50739;45.670;11.936;2022-08-03T11:07:23;2.10;;;2.00;;
62475;SDS011;50739;45.670;11.936;2022-08-03T11:12:28;2.20;;;2.00;;
62475;SDS011;50739;45.670;11.936;2022-08-03T11:17:30;2.08;;;1.95;;
62475;SDS011;50739;45.670;11.936;2022-08-03T11:22:46;1.95;;;1.85;;
62475;SDS011;50739;45.670;11.936;2022-08-03T11:27:57;3.50;;;1.73;;
62475;SDS011;50739;45.670;11.936;2022-08-03T11:33:28;1.80;;;1.70;;
62475;SDS011;50739;45.670;11.936;2022-08-03T11:38:30;2.13;;;1.90;;
62475;SDS011;50739;45.670;11.936;2022-08-03T11:48:51;2.08;;;1.85;;
62475;SDS011;50739;45.670;11.936;2022-08-03T11:53:58;2.38;;;1.90;;
62475;SDS011;50739;45.670;11.936;2022-08-03T11:59:03;2.60;;;2.03;;
62475;SDS011;50739;45.670;11.936;2022-08-03T12:04:05;2.20;;;2.00;;
62475;SDS011;50739;45.670;11.936;2022-08-03T12:09:14;2.10;;;1.73;;
62475;SDS011;50739;45.670;11.936;2022-08-03T12:14:19;1.80;;;1.70;;
62475;SDS011;50739;45.670;11.936;2022-08-03T12:19:21;1.98;;;1.80;;
62475;SDS011;50739;45.670;11.936;2022-08-03T12:24:38;2.30;;;1.80;;
62475;SDS011;50739;45.670;11.936;2022-08-03T12:29:43;3.47;;;1.80;;
62475;SDS011;50739;45.670;11.936;2022-08-03T12:34:51;2.40;;;1.75;;
62475;SDS011;50739;45.670;11.936;2022-08-03T12:39:54;1.67;;;1.57;;
62475;SDS011;50739;45.670;11.936;2022-08-03T12:45:00;2.00;;;1.77;;
62475;SDS011;50739;45.670;11.936;2022-08-03T12:50:22;2.10;;;1.90;;
62475;SDS011;50739;45.670;11.936;2022-08-03T12:55:28;1.70;;;1.60;;
62475;SDS011;50739;45.670;11.936;2022-08-03T13:00:35;1.75;;;1.65;;
62475;SDS011;50739;45.670;11.936;2022-08-03T13:05:46;1.87;;;1.70;;
62475;SDS011;50739;45.670;11.936;2022-08-03T13:10:48;1.80;;;1.70;;
62475;SDS011;50739;45.670;11.936;2022-08-03T13:15:52;1.90;;;1.37;;
62475;SDS011;50739;45.670;11.936;2022-08-03T13:20:54;1.70;;;1.60;;
62475;SDS011;50739;45.670;11.936;2022-08-03T13:25:56;1.47;;;1.37;;
62475;SDS011;50739;45.670;11.936;2022-08-03T13:30:59;2.00;;;1.40;;
62475;SDS011;50739;45.670;11.936;2022-08-03T13:36:01;1.50;;;1.40;;
62475;SDS011;50739;45.670;11.936;2022-08-03T13:41:03;1.55;;;1.30;;
62475;SDS011;50739;45.670;11.936;2022-08-03T13:46:06;1.27;;;1.23;;
62475;SDS011;50739;45.670;11.936;2022-08-03T13:51:08;2.25;;;1.45;;
62475;SDS011;50739;45.670;11.936;2022-08-03T13:56:10;1.52;;;1.42;;
62475;SDS011;50739;45.670;11.936;2022-08-03T14:01:13;2.57;;;1.50;;
62475;SDS011;50739;45.670;11.936;2022-08-03T14:06:15;1.45;;;1.23;;
62475;SDS011;50739;45.670;11.936;2022-08-03T14:11:17;1.30;;;1.20;;
62475;SDS011;50739;45.670;11.936;2022-08-03T14:16:20;1.45;;;1.20;;
62475;SDS011;50739;45.670;11.936;2022-08-03T14:21:22;1.40;;;1.27;;
62475;SDS011;50739;45.670;11.936;2022-08-03T14:26:26;1.48;;;1.38;;
62475;SDS011;50739;45.670;11.936;2022-08-03T14:31:30;1.50;;;1.30;;
62475;SDS011;50739;45.670;11.936;2022-08-03T14:36:33;1.30;;;1.20;;
62475;SDS011;50739;45.670;11.936;2022-08-03T14:41:35;1.15;;;1.10;;
62475;SDS011;50739;45.670;11.936;2022-08-03T14:46:38;1.25;;;1.00;;
62475;SDS011;50739;45.670;11.936;2022-08-03T14:51:40;1.00;;;1.00;;
62475;SDS011;50739;45.670;11.936;2022-08-03T14:56:42;1.95;;;1.05;;
62475;SDS011;50739;45.670;11.936;2022-08-03T15:01:45;1.40;;;1.30;;
62475;SDS011;50739;45.670;11.936;2022-08-03T15:06:47;1.58;;;1.40;;
62475;SDS011;50739;45.670;11.936;2022-08-03T15:11:49;1.63;;;1.50;;
62475;SDS011;50739;45.670;11.936;2022-08-03T15:16:52;2.47;;;1.80;;
62475;SDS011;50739;45.670;11.936;2022-08-03T15:21:54;2.17;;;1.73;;
62475;SDS011;50739;45.670;11.936;2022-08-03T15:26:56;2.30;;;1.93;;
62475;SDS011;50739;45.670;11.936;2022-08-03T15:31:59;1.70;;;1.60;;
62475;SDS011;50739;45.670;11.936;2022-08-03T15:37:01;1.87;;;1.40;;
62475;SDS011;50739;45.670;11.936;2022-08-03T15:42:04;1.50;;;1.23;;
62475;SDS011;50739;45.670;11.936;2022-08-03T15:47:07;2.70;;;1.52;;
62475;SDS011;50739;45.670;11.936;2022-08-03T15:52:09;1.20;;;1.10;;
62475;SDS011;50739;45.670;11.936;2022-08-03T15:57:11;1.97;;;1.10;;
62475;SDS011;50739;45.670;11.936;2022-08-03T16:02:14;1.65;;;1.20;;
62475;SDS011;50739;45.670;11.936;2022-08-03T16:07:16;3.13;;;1.10;;
62475;SDS011;50739;45.670;11.936;2022-08-03T16:12:39;1.30;;;0.93;;
62475;SDS011;50739;45.670;11.936;2022-08-03T16:17:42;1.13;;;1.03;;
62475;SDS011;50739;45.670;11.936;2022-08-03T16:22:45;2.05;;;0.80;;
62475;SDS011;50739;45.670;11.936;2022-08-03T16:27:48;1.40;;;0.90;;
62475;SDS011;50739;45.670;11.936;2022-08-03T16:32:51;2.50;;;1.00;;
62475;SDS011;50739;45.670;11.936;2022-08-03T16:37:53;1.33;;;1.00;;
62475;SDS011;50739;45.670;11.936;2022-08-03T16:42:55;1.17;;;0.90;;
62475;SDS011;50739;45.670;11.936;2022-08-03T16:47:58;0.85;;;0.85;;
62475;SDS011;50739;45.670;11.936;2022-08-03T16:53:02;1.73;;;0.90;;
62475;SDS011;50739;45.670;11.936;2022-08-03T16:58:08;0.75;;;0.75;;
62475;SDS011;50739;45.670;11.936;2022-08-03T17:03:16;2.10;;;0.90;;
62475;SDS011;50739;45.670;11.936;2022-08-03T17:08:24;1.10;;;0.80;;
62475;SDS011;50739;45.670;11.936;2022-08-03T17:13:29;0.88;;;0.80;;
62475;SDS011;50739;45.670;11.936;2022-08-03T17:18:36;0.90;;;0.90;;
62475;SDS011;50739;45.670;11.936;2022-08-03T17:23:47;1.50;;;0.70;;
62475;SDS011;50739;45.670;11.936;2022-08-03T17:28:57;0.40;;;0.40;;
62475;SDS011;50739;45.670;11.936;2022-08-03T17:34:09;1.83;;;0.60;;
62475;SDS011;50739;45.670;11.936;2022-08-03T17:39:14;2.10;;;0.80;;
62475;SDS011;50739;45.670;11.936;2022-08-03T17:44:21;0.80;;;0.60;;
62475;SDS011;50739;45.670;11.936;2022-08-03T17:49:30;0.65;;;0.63;;
62475;SDS011;50739;45.670;11.936;2022-08-03T17:54:37;2.95;;;0.82;;
62475;SDS011;50739;45.670;11.936;2022-08-03T17:59:49;2.15;;;0.60;;
62475;SDS011;50739;45.670;11.936;2022-08-03T18:05:01;1.40;;;0.63;;
62475;SDS011;50739;45.670;11.936;2022-08-03T18:10:08;1.00;;;0.70;;
62475;SDS011;50739;45.670;11.936;2022-08-03T18:15:14;0.90;;;0.60;;
62475;SDS011;50739;45.670;11.936;2022-08-03T18:20:29;1.37;;;0.73;;
62475;SDS011;50739;45.670;11.936;2022-08-03T18:25:36;1.65;;;1.00;;
62475;SDS011;50739;45.670;11.936;2022-08-03T18:30:43;0.70;;;0.70;;
62475;SDS011;50739;45.670;11.936;2022-08-03T18:35:52;1.33;;;0.85;;
62475;SDS011;50739;45.670;11.936;2022-08-03T18:40:59;2.15;;;0.90;;
62475;SDS011;50739;45.670;11.936;2022-08-03T18:46:06;1.40;;;0.80;;
62475;SDS011;50739;45.670;11.936;2022-08-03T18:51:27;2.10;;;0.70;;
62475;SDS011;50739;45.670;11.936;2022-08-03T18:56:36;2.58;;;0.90;;
62475;SDS011;50739;45.670;11.936;2022-08-03T19:01:49;1.40;;;0.90;;
62475;SDS011;50739;45.670;11.936;2022-08-03T19:06:59;1.98;;;1.10;;
62475;SDS011;50739;45.670;11.936;2022-08-03T19:12:08;1.30;;;0.90;;
62475;SDS011;50739;45.670;11.936;2022-08-03T19:17:17;1.20;;;0.80;;
62475;SDS011;50739;45.670;11.936;2022-08-03T19:22:26;2.15;;;0.80;;
62475;SDS011;50739;45.670;11.936;2022-08-03T19:27:31;1.42;;;0.80;;
62475;SDS011;50739;45.670;11.936;2022-08-03T19:32:38;0.95;;;0.88;;
62475;SDS011;50739;45.670;11.936;2022-08-03T19:37:47;1.03;;;1.00;;
62475;SDS011;50739;45.670;11.936;2022-08-03T19:42:52;1.80;;;1.07;;
62475;SDS011;50739;45.670;11.936;2022-08-03T19:48:03;6.60;;;1.40;;
62475;SDS011;50739;45.670;11.936;2022-08-03T19:53:12;2.05;;;1.20;;
62475;SDS011;50739;45.670;11.936;2022-08-03T19:58:18;2.35;;;1.20;;
62475;SDS011;50739;45.670;11.936;2022-08-03T20:03:27;2.87;;;1.40;;
62475;SDS011;50739;45.670;11.936;2022-08-03T20:08:35;1.90;;;1.20;;
62475;SDS011;50739;45.670;11.936;2022-08-03T20:13:44;2.70;;;1.50;;
62475;SDS011;50739;45.670;11.936;2022-08-03T20:18:51;3.03;;;1.60;;
62475;SDS011;50739;45.670;11.936;2022-08-03T20:23:59;2.97;;;1.70;;
62475;SDS011;50739;45.670;11.936;2022-08-03T20:29:06;2.33;;;1.58;;
62475;SDS011;50739;45.670;11.936;2022-08-03T20:34:14;2.22;;;1.60;;
62475;SDS011;50739;45.670;11.936;2022-08-03T20:39:21;3.58;;;1.73;;
62475;SDS011;50739;45.670;11.936;2022-08-03T20:44:27;2.00;;;1.80;;
62475;SDS011;50739;45.670;11.936;2022-08-03T20:49:32;4.90;;;1.70;;
62475;SDS011;50739;45.670;11.936;2022-08-03T20:54:42;2.33;;;1.98;;
62475;SDS011;50739;45.670;11.936;2022-08-03T20:59:48;3.33;;;2.10;;
62475;SDS011;50739;45.670;11.936;2022-08-03T21:04:54;5.30;;;2.47;;
62475;SDS011;50739;45.670;11.936;2022-08-03T21:10:03;2.88;;;1.90;;
62475;SDS011;50739;45.670;11.936;2022-08-03T21:15:09;3.97;;;2.03;;
62475;SDS011;50739;45.670;11.936;2022-08-03T21:20:15;3.47;;;2.13;;
62475;SDS011;50739;45.670;11.936;2022-08-03T21:25:25;3.30;;;2.10;;
62475;SDS011;50739;45.670;11.936;2022-08-03T21:30:32;3.33;;;2.08;;
62475;SDS011;50739;45.670;11.936;2022-08-03T21:35:37;3.08;;;2.00;;
62475;SDS011;50739;45.670;11.936;2022-08-03T21:40:45;4.80;;;2.20;;
62475;SDS011;50739;45.670;11.936;2022-08-03T21:45:52;4.53;;;2.72;;
62475;SDS011;50739;45.670;11.936;2022-08-03T21:51:01;3.63;;;2.53;;
62475;SDS011;50739;45.670;11.936;2022-08-03T21:56:09;4.35;;;2.75;;
62475;SDS011;50739;45.670;11.936;2022-08-03T22:01:15;5.40;;;3.00;;
62475;SDS011;50739;45.670;11.936;2022-08-03T22:06:22;6.47;;;3.60;;
62475;SDS011;50739;45.670;11.936;2022-08-03T22:11:30;5.10;;;3.73;;
62475;SDS011;50739;45.670;11.936;2022-08-03T22:16:36;7.00;;;4.30;;
62475;SDS011;50739;45.670;11.936;2022-08-03T22:21:44;5.00;;;4.28;;
62475;SDS011;50739;45.670;11.936;2022-08-03T22:26:52;7.50;;;4.40;;
62475;SDS011;50739;45.670;11.936;2022-08-03T22:32:14;9.17;;;5.00;;
62475;SDS011;50739;45.670;11.936;2022-08-03T22:37:19;6.40;;;4.60;;
62475;SDS011;50739;45.670;11.936;2022-08-03T22:42:29;7.43;;;4.60;;
62475;SDS011;50739;45.670;11.936;2022-08-03T22:47:36;9.50;;;4.90;;
62475;SDS011;50739;45.670;11.936;2022-08-03T22:52:43;5.88;;;4.20;;
62475;SDS011;50739;45.670;11.936;2022-08-03T22:57:49;5.83;;;3.90;;
62475;SDS011;50739;45.670;11.936;2022-08-03T23:02:55;5.22;;;3.58;;
62475;SDS011;50739;45.670;11.936;2022-08-03T23:08:03;5.20;;;3.50;;
62475;SDS011;50739;45.670;11.936;2022-08-03T23:13:12;5.60;;;3.45;;
62475;SDS011;50739;45.670;11.936;2022-08-03T23:18:16;4.78;;;3.22;;
62475;SDS011;50739;45.670;11.936;2022-08-03T23:23:21;5.10;;;3.40;;
62475;SDS011;50739;45.670;11.936;2022-08-03T23:28:25;5.60;;;3.10;;
62475;SDS011;50739;45.670;11.936;2022-08-03T23:33:30;4.30;;;3.10;;
62475;SDS011;50739;45.670;11.936;2022-08-03T23:38:34;4.20;;;2.90;;
62475;SDS011;50739;45.670;11.936;2022-08-03T23:43:38;4.60;;;3.17;;
62475;SDS011;50739;45.670;11.936;2022-08-03T23:48:40;3.50;;;3.20;;
62475;SDS011;50739;45.670;11.936;2022-08-03T23:53:45;3.40;;;3.10;;
62475;SDS011;50739;45.670;11.936;2022-08-03T23:58:58;4.50;;;3.33;;
